Time;durP1;ratioP1;P1;durP2;ratioP2;P2;SDS_P1;SDS_P2;PMS_P1;PMS_P2;Temp;Humidity;BMP_temperature;BMP_pressure;BME280_temperature;BME280_humidity;BME280_pressure;Samples;Min_cycle;Max_cycle;Signal;HPM_P1;HPM_P2
2024/03/20 00:01:32;;;;;;;;;;;;;;;7.01;100.00;100683.13;5011711;28;19918;-75
2024/03/20 00:03:58;;;;;;;;;;;;;;;6.96;100.00;100686.31;5011351;28;20546;-74
2024/03/20 00:06:23;;;;;;;;;;;;;;;6.99;100.00;100682.16;5011712;28;19921;-75
2024/03/20 00:08:48;;;;;;;;;;;;;;;6.99;100.00;100682.16;5011612;28;19921;-74
2024/03/20 00:11:14;;;;;;;;;;;;;;;6.97;100.00;100685.50;4992998;28;20402;-75
2024/03/20 00:13:39;;;;;;;;;;;;;;;7.00;100.00;100682.22;5010719;28;20362;-75
2024/03/20 00:16:04;;;;;;;;;;;;;;;6.99;100.00;100683.06;5012517;28;20364;-75
2024/03/20 00:18:30;;;;;;;;;;;;;;;7.10;100.00;100684.53;5011528;28;19917;-75
2024/03/20 00:20:55;;;;;;;;;;;;;;;7.16;100.00;100678.81;5011616;28;19929;-75
2024/03/20 00:23:22;;;;;;;;;;;;;;;7.16;100.00;100680.50;5009712;28;19922;-75
2024/03/20 00:25:47;;;;;;;;;;;;;;;7.19;100.00;100680.66;5011296;28;20024;-75
2024/03/20 00:28:13;;;;;;;;;;;;;;;7.14;100.00;100680.44;5011150;28;20016;-74
2024/03/20 00:30:38;;;;;;;;;;;;;;;6.90;100.00;100672.25;5011640;28;19941;-75
2024/03/20 00:33:04;;;;;;;;;;;;;;;6.81;100.00;100672.66;5011315;28;19932;-75
2024/03/20 00:35:33;;;;;;;;;;;;;;;6.72;100.00;100677.28;5009933;28;20048;-75
2024/03/20 00:37:58;;;;;;;;;;;;;;;6.70;100.00;100674.59;5010795;28;20359;-74
2024/03/20 00:40:23;;;;;;;;;;;;;;;6.73;100.00;100669.66;5011443;28;20012;-74
2024/03/20 00:42:49;;;;;;;;;;;;;;;6.70;100.00;100673.72;5010767;28;19922;-74
2024/03/20 00:45:14;;;;;;;;;;;;;;;6.77;100.00;100673.28;5010361;28;19922;-74
2024/03/20 00:47:39;;;;;;;;;;;;;;;6.79;100.00;100669.09;5011368;28;19925;-75
2024/03/20 00:50:06;;;;;;;;;;;;;;;6.88;100.00;100671.28;5011547;28;19922;-75
2024/03/20 00:52:32;;;;;;;;;;;;;;;6.93;100.00;100668.19;5010902;28;19913;-75
2024/03/20 00:54:57;;;;;;;;;;;;;;;6.98;100.00;100658.19;5010651;28;19987;-74
2024/03/20 00:57:24;;;;;;;;;;;;;;;6.94;100.00;100666.50;5010560;28;20625;-74
2024/03/20 00:59:49;;;;;;;;;;;;;;;6.97;100.00;100667.53;5011283;28;19928;-74
2024/03/20 01:02:15;;;;;;;;;;;;;;;7.06;100.00;100674.88;5010934;28;19921;-74
2024/03/20 01:04:40;;;;;;;;;;;;;;;7.09;100.00;100676.72;5010634;28;19937;-74
2024/03/20 01:07:05;;;;;;;;;;;;;;;7.05;100.00;100678.25;5011361;28;20020;-74
2024/03/20 01:09:31;;;;;;;;;;;;;;;7.03;100.00;100673.81;5010482;28;19964;-74
2024/03/20 01:11:56;;;;;;;;;;;;;;;6.99;100.00;100672.78;5010831;28;19971;-74
2024/03/20 01:14:22;;;;;;;;;;;;;;;6.89;100.00;100670.50;5010606;28;20016;-74
2024/03/20 01:16:48;;;;;;;;;;;;;;;6.90;100.00;100670.59;5010328;28;19925;-74
2024/03/20 01:19:14;;;;;;;;;;;;;;;6.93;100.00;100673.31;5009798;28;20449;-74
2024/03/20 01:21:39;;;;;;;;;;;;;;;6.94;100.00;100667.41;5006120;28;19921;-74
2024/03/20 01:24:06;;;;;;;;;;;;;;;6.94;100.00;100669.97;5010478;28;19925;-74
2024/03/20 01:26:32;;;;;;;;;;;;;;;6.78;100.00;100672.50;4990817;28;19917;-75
2024/03/20 01:28:57;;;;;;;;;;;;;;;6.69;100.00;100682.22;5010693;28;19925;-75
2024/03/20 01:31:23;;;;;;;;;;;;;;;6.66;100.00;100682.94;5010525;28;20011;-75
2024/03/20 01:33:48;;;;;;;;;;;;;;;6.71;100.00;100688.34;5010556;28;20406;-75
2024/03/20 01:36:14;;;;;;;;;;;;;;;6.72;100.00;100687.53;5010587;28;19928;-74
2024/03/20 01:38:39;;;;;;;;;;;;;;;6.71;100.00;100686.63;5010341;28;19921;-74
2024/03/20 01:41:05;;;;;;;;;;;;;;;6.74;100.00;100686.81;5010108;28;19918;-74
2024/03/20 01:43:30;;;;;;;;;;;;;;;6.79;100.00;100677.69;5010519;28;19929;-74
2024/03/20 01:45:56;;;;;;;;;;;;;;;6.83;100.00;100676.19;5010074;28;19914;-75
2024/03/20 01:48:21;;;;;;;;;;;;;;;6.82;100.00;100682.13;5009747;28;19922;-74
2024/03/20 01:50:47;;;;;;;;;;;;;;;6.86;100.00;100678.91;5010162;28;19956;-75
2024/03/20 01:53:13;;;;;;;;;;;;;;;6.76;100.00;100687.78;5010045;28;19929;-75
2024/03/20 01:55:39;;;;;;;;;;;;;;;6.70;100.00;100684.88;5009954;28;19922;-75
2024/03/20 01:58:05;;;;;;;;;;;;;;;6.20;100.00;100691.44;5009908;28;19941;-74
2024/03/20 02:00:30;;;;;;;;;;;;;;;6.01;100.00;100691.16;5010110;28;19921;-74
2024/03/20 02:02:57;;;;;;;;;;;;;;;5.87;100.00;100691.22;5009894;28;19929;-74
2024/03/20 02:05:24;;;;;;;;;;;;;;;6.00;100.00;100687.72;5010214;28;20307;-75
2024/03/20 02:07:55;;;;;;;;;;;;;;;6.06;100.00;100690.66;5009050;28;19968;-75
2024/03/20 02:10:21;;;;;;;;;;;;;;;6.05;100.00;100686.31;5009861;28;19959;-74
2024/03/20 02:13:02;;;;;;;;;;;;;;;6.06;100.00;100682.09;5010147;28;19965;-74
2024/03/20 02:15:27;;;;;;;;;;;;;;;6.06;100.00;100687.22;5009902;28;20367;-75
2024/03/20 02:17:53;;;;;;;;;;;;;;;5.99;100.00;100685.94;5009768;28;19971;-74
2024/03/20 02:20:18;;;;;;;;;;;;;;;5.95;100.00;100684.84;5009820;28;19968;-74
2024/03/20 02:22:44;;;;;;;;;;;;;;;5.98;100.00;100684.16;5010156;28;19917;-75
2024/03/20 02:25:09;;;;;;;;;;;;;;;6.05;100.00;100688.00;5009946;28;19925;-75
2024/03/20 02:27:35;;;;;;;;;;;;;;;6.13;100.00;100687.66;5009711;28;20008;-75
2024/03/20 02:30:00;;;;;;;;;;;;;;;6.22;100.00;100677.06;5009725;28;19961;-75
2024/03/20 02:32:26;;;;;;;;;;;;;;;6.31;100.00;100681.81;5009615;28;20004;-75
2024/03/20 02:34:51;;;;;;;;;;;;;;;6.34;100.00;100686.25;5009850;28;19922;-75
2024/03/20 02:37:17;;;;;;;;;;;;;;;6.39;100.00;100688.28;5011238;28;19926;-75
2024/03/20 02:39:43;;;;;;;;;;;;;;;6.47;100.00;100691.28;5013461;28;19926;-75
2024/03/20 02:42:08;;;;;;;;;;;;;;;6.51;100.00;100697.47;5013727;28;20004;-74
2024/03/20 02:44:33;;;;;;;;;;;;;;;6.59;100.00;100706.47;5012027;28;20071;-75
2024/03/20 02:47:00;;;;;;;;;;;;;;;6.61;100.00;100710.03;5013854;28;19979;-75
2024/03/20 02:49:25;;;;;;;;;;;;;;;6.55;100.00;100713.09;5013199;28;20379;-74
2024/03/20 02:51:50;;;;;;;;;;;;;;;6.48;100.00;100718.72;5013301;28;19927;-74
2024/03/20 02:54:16;;;;;;;;;;;;;;;6.44;100.00;100716.75;5013500;28;19918;-74
2024/03/20 02:56:41;;;;;;;;;;;;;;;6.42;100.00;100718.34;5013009;28;19925;-74
2024/03/20 02:59:06;;;;;;;;;;;;;;;6.39;100.00;100719.06;5012874;28;19921;-74
2024/03/20 03:01:32;;;;;;;;;;;;;;;6.35;100.00;100726.47;5013218;28;19972;-74
2024/03/20 03:03:57;;;;;;;;;;;;;;;6.24;100.00;100729.31;5013152;28;20430;-74
2024/03/20 03:06:22;;;;;;;;;;;;;;;6.15;100.00;100728.75;5013027;28;19967;-74
2024/03/20 03:08:48;;;;;;;;;;;;;;;6.09;100.00;100738.66;5012991;28;19917;-74
2024/03/20 03:11:15;;;;;;;;;;;;;;;5.96;100.00;100743.00;5013145;28;19987;-74
2024/03/20 03:13:41;;;;;;;;;;;;;;;5.86;100.00;100744.91;5012837;28;19921;-74
2024/03/20 03:16:12;;;;;;;;;;;;;;;5.59;100.00;100748.44;5014326;28;19952;-75
2024/03/20 03:18:38;;;;;;;;;;;;;;;5.53;100.00;100747.19;5013153;28;19992;-74
2024/03/20 03:21:07;;;;;;;;;;;;;;;5.42;100.00;100747.44;5012993;28;19922;-75
2024/03/20 03:23:32;;;;;;;;;;;;;;;5.34;100.00;100754.59;5012389;28;19980;-74
2024/03/20 03:25:58;;;;;;;;;;;;;;;5.25;100.00;100754.06;5013105;28;20338;-74
2024/03/20 03:28:23;;;;;;;;;;;;;;;5.24;100.00;100764.19;5012367;28;20334;-74
2024/03/20 03:30:48;;;;;;;;;;;;;;;5.20;100.00;100758.00;5013059;28;20388;-74
2024/03/20 03:33:14;;;;;;;;;;;;;;;5.16;100.00;100764.59;5012499;28;20384;-74
2024/03/20 03:35:39;;;;;;;;;;;;;;;5.13;100.00;100764.38;5012678;28;20409;-74
2024/03/20 03:38:04;;;;;;;;;;;;;;;5.15;100.00;100777.31;5012249;28;19937;-74
2024/03/20 03:40:30;;;;;;;;;;;;;;;5.17;100.00;100770.59;5012878;28;19921;-75
2024/03/20 03:42:55;;;;;;;;;;;;;;;5.10;100.00;100778.69;5012186;28;19921;-74
2024/03/20 03:45:20;;;;;;;;;;;;;;;4.82;100.00;100738.50;5012478;28;19945;-74
2024/03/20 03:47:47;;;;;;;;;;;;;;;4.99;100.00;100788.22;5011692;28;19976;-74
2024/03/20 03:50:12;;;;;;;;;;;;;;;5.06;100.00;100784.38;5012631;28;19929;-74
2024/03/20 03:52:38;;;;;;;;;;;;;;;5.12;100.00;100779.66;5009136;28;19925;-74
2024/03/20 03:55:04;;;;;;;;;;;;;;;5.26;100.00;100789.09;5012511;28;19921;-74
2024/03/20 03:57:29;;;;;;;;;;;;;;;5.23;100.00;100783.78;5017871;28;19926;-75
2024/03/20 03:59:55;;;;;;;;;;;;;;;5.06;100.00;100798.06;5012123;28;19987;-74
2024/03/20 04:02:21;;;;;;;;;;;;;;;5.04;100.00;100796.19;5011377;28;20462;-74
2024/03/20 04:04:46;;;;;;;;;;;;;;;4.92;100.00;100802.31;5012404;28;19921;-74
2024/03/20 04:07:12;;;;;;;;;;;;;;;4.65;100.00;100802.25;5011927;28;20446;-74
2024/03/20 04:09:37;;;;;;;;;;;;;;;4.59;100.00;100818.88;5011948;28;19986;-74
2024/03/20 04:12:03;;;;;;;;;;;;;;;4.68;100.00;100816.91;5011867;28;19952;-74
2024/03/20 04:14:28;;;;;;;;;;;;;;;4.72;100.00;100818.00;5012215;28;20638;-75
2024/03/20 04:16:54;;;;;;;;;;;;;;;4.71;100.00;100819.69;5012127;28;19936;-74
2024/03/20 04:19:20;;;;;;;;;;;;;;;4.59;100.00;100829.97;5012553;28;20295;-74
2024/03/20 04:21:45;;;;;;;;;;;;;;;4.68;100.00;100822.03;5026844;28;19921;-74
2024/03/20 04:24:12;;;;;;;;;;;;;;;4.79;100.00;100825.31;5011777;28;20356;-74
2024/03/20 04:26:37;;;;;;;;;;;;;;;4.88;100.00;100825.03;5011254;28;19922;-74
2024/03/20 04:29:03;;;;;;;;;;;;;;;4.85;100.00;100838.50;5011694;28;19922;-74
2024/03/20 04:31:29;;;;;;;;;;;;;;;4.60;100.00;100838.53;4992809;28;19921;-74
2024/03/20 04:33:54;;;;;;;;;;;;;;;4.71;100.00;100847.81;5011394;28;20304;-75
2024/03/20 04:36:19;;;;;;;;;;;;;;;4.84;100.00;100837.59;5011493;28;19925;-74
2024/03/20 04:38:46;;;;;;;;;;;;;;;4.96;100.00;100841.75;5011577;28;19918;-74
2024/03/20 04:41:12;;;;;;;;;;;;;;;4.87;100.00;100842.03;5009626;28;20449;-74
2024/03/20 04:43:38;;;;;;;;;;;;;;;4.89;100.00;100850.69;5011379;28;19940;-75
2024/03/20 04:46:03;;;;;;;;;;;;;;;4.82;100.00;100851.97;5011265;28;20407;-75
2024/03/20 04:48:29;;;;;;;;;;;;;;;4.51;100.00;100852.47;5011578;28;19921;-74
2024/03/20 04:50:54;;;;;;;;;;;;;;;4.27;100.00;100861.91;5011998;28;19957;-74
2024/03/20 04:53:20;;;;;;;;;;;;;;;4.27;100.00;100863.59;5011431;28;19929;-75
2024/03/20 04:55:46;;;;;;;;;;;;;;;4.16;100.00;100868.84;5026412;28;20343;-74
2024/03/20 04:58:12;;;;;;;;;;;;;;;3.78;100.00;100813.44;5009500;28;19948;-75
2024/03/20 05:00:37;;;;;;;;;;;;;;;4.11;100.00;100865.09;5011788;28;19917;-74
2024/03/20 05:03:04;;;;;;;;;;;;;;;4.03;100.00;100872.22;5009786;28;19921;-74
2024/03/20 05:05:29;;;;;;;;;;;;;;;4.04;100.00;100881.66;5011965;28;19921;-74
2024/03/20 05:07:54;;;;;;;;;;;;;;;3.99;100.00;100883.00;5011522;28;20021;-74
2024/03/20 05:10:20;;;;;;;;;;;;;;;3.98;100.00;100877.78;5011258;28;19917;-74
2024/03/20 05:12:48;;;;;;;;;;;;;;;4.04;100.00;100885.88;5011437;28;20376;-74
2024/03/20 05:15:15;;;;;;;;;;;;;;;4.18;100.00;100881.72;5011144;28;20438;-73
2024/03/20 05:17:40;;;;;;;;;;;;;;;4.38;100.00;100883.97;5010612;28;20277;-75
2024/03/20 05:20:06;;;;;;;;;;;;;;;4.44;100.00;100888.63;5010837;28;20009;-74
2024/03/20 05:22:31;;;;;;;;;;;;;;;4.49;100.00;100887.28;5010126;28;20471;-74
2024/03/20 05:24:57;;;;;;;;;;;;;;;4.64;100.00;100884.88;5010640;28;19971;-74
2024/03/20 05:27:22;;;;;;;;;;;;;;;4.80;100.00;100880.81;5007663;28;20024;-74
2024/03/20 05:29:47;;;;;;;;;;;;;;;4.99;100.00;100882.91;5010318;28;19956;-75
2024/03/20 05:32:13;;;;;;;;;;;;;;;5.17;100.00;100890.88;5008567;28;19922;-74
2024/03/20 05:34:38;;;;;;;;;;;;;;;5.33;100.00;100896.25;5009295;28;19922;-74
2024/03/20 05:37:04;;;;;;;;;;;;;;;5.40;100.00;100905.19;5010594;28;19921;-73
2024/03/20 05:39:29;;;;;;;;;;;;;;;5.47;100.00;100898.78;5010548;28;20027;-75
2024/03/20 05:41:55;;;;;;;;;;;;;;;5.57;100.00;100905.38;5006296;28;19917;-74
2024/03/20 05:44:22;;;;;;;;;;;;;;;5.61;100.00;100904.81;5010696;28;19921;-75
2024/03/20 05:46:51;;;;;;;;;;;;;;;5.60;100.00;100903.03;5009652;28;20446;-73
2024/03/20 05:49:19;;;;;;;;;;;;;;;5.72;100.00;100910.59;5006597;28;20330;-73
2024/03/20 05:51:48;;;;;;;;;;;;;;;5.69;100.00;100905.28;5009517;28;20371;-73
2024/03/20 05:54:14;;;;;;;;;;;;;;;5.66;100.00;100909.41;5006639;28;20387;-74
2024/03/20 05:56:39;;;;;;;;;;;;;;;5.53;100.00;100904.28;5009919;28;19936;-74
2024/03/20 05:59:04;;;;;;;;;;;;;;;5.46;100.00;100907.28;5010203;28;20295;-73
2024/03/20 06:01:31;;;;;;;;;;;;;;;5.29;100.00;100914.72;5009776;28;20004;-74
2024/03/20 06:03:57;;;;;;;;;;;;;;;5.23;100.00;100911.75;5010327;28;19933;-73
2024/03/20 06:06:22;;;;;;;;;;;;;;;5.41;100.00;100913.75;5010174;28;20367;-73
2024/03/20 06:08:47;;;;;;;;;;;;;;;5.55;100.00;100919.78;5010519;28;19917;-74
2024/03/20 06:11:13;;;;;;;;;;;;;;;5.58;100.00;100928.56;5009335;28;20020;-73
2024/03/20 06:13:38;;;;;;;;;;;;;;;5.41;100.00;100923.97;5010676;28;19926;-73
2024/03/20 06:16:04;;;;;;;;;;;;;;;5.39;100.00;100926.44;5009756;28;19921;-74
2024/03/20 06:18:30;;;;;;;;;;;;;;;5.31;100.00;100927.66;5010014;28;19921;-74
2024/03/20 06:20:55;;;;;;;;;;;;;;;5.41;100.00;100931.66;5009949;28;20310;-74
2024/03/20 06:23:42;;;;;;;;;;;;;;;5.53;100.00;100932.47;4983686;28;19961;-73
2024/03/20 06:26:07;;;;;;;;;;;;;;;5.56;100.00;100937.81;4987711;28;20005;-74
2024/03/20 06:28:33;;;;;;;;;;;;;;;5.58;100.00;100936.25;4988111;28;20000;-73
2024/03/20 06:30:58;;;;;;;;;;;;;;;5.44;100.00;100937.00;4987635;28;19922;-74
2024/03/20 06:33:24;;;;;;;;;;;;;;;5.53;100.00;100935.03;4987015;28;20009;-74
2024/03/20 06:35:50;;;;;;;;;;;;;;;5.57;100.00;100939.59;4987430;28;19928;-74
2024/03/20 06:38:16;;;;;;;;;;;;;;;5.65;100.00;100945.19;4987442;28;20455;-73
2024/03/20 06:40:44;;;;;;;;;;;;;;;5.76;100.00;100935.66;4987608;28;19980;-74
2024/03/20 06:43:10;;;;;;;;;;;;;;;5.90;100.00;100939.94;4987355;28;19925;-74
2024/03/20 06:45:55;;;;;;;;;;;;;;;6.03;100.00;100948.44;4962090;28;19930;-73
2024/03/20 06:48:26;;;;;;;;;;;;;;;6.20;100.00;100947.81;4967822;28;19922;-74
2024/03/20 06:50:51;;;;;;;;;;;;;;;6.31;100.00;100951.06;4968716;28;19969;-74
2024/03/20 06:53:18;;;;;;;;;;;;;;;6.32;100.00;100953.72;4967846;28;19926;-73
2024/03/20 06:55:45;;;;;;;;;;;;;;;6.34;100.00;100956.38;4973563;28;20016;-74
2024/03/20 06:58:11;;;;;;;;;;;;;;;6.54;100.00;100949.91;4988226;28;20386;-75
2024/03/20 07:00:37;;;;;;;;;;;;;;;6.77;100.00;100952.97;4988376;28;19992;-74
2024/03/20 07:03:02;;;;;;;;;;;;;;;6.97;100.00;100949.03;4987763;28;20040;-75
2024/03/20 07:05:27;;;;;;;;;;;;;;;7.10;100.00;100958.34;4987703;28;20490;-75
2024/03/20 07:07:53;;;;;;;;;;;;;;;7.07;100.00;100951.34;4988224;28;19925;-71
2024/03/20 07:10:18;;;;;;;;;;;;;;;7.20;100.00;100955.53;4987581;28;19929;-75
2024/03/20 07:12:44;;;;;;;;;;;;;;;7.45;100.00;100955.25;4966997;28;20451;-74
2024/03/20 07:15:13;;;;;;;;;;;;;;;7.51;100.00;100959.84;4982144;28;19918;-75
2024/03/20 07:17:39;;;;;;;;;;;;;;;7.52;100.00;100959.06;4991293;28;19926;-75
2024/03/20 07:20:09;;;;;;;;;;;;;;;7.48;100.00;100957.13;5025147;28;19925;-73
2024/03/20 07:22:35;;;;;;;;;;;;;;;7.55;100.00;100959.25;5008901;28;19925;-74
2024/03/20 07:25:01;;;;;;;;;;;;;;;7.77;100.00;100955.31;5013202;28;20402;-72
2024/03/20 07:27:26;;;;;;;;;;;;;;;7.97;100.00;100963.25;5010899;28;19924;-72
2024/03/20 07:29:52;;;;;;;;;;;;;;;8.05;100.00;100967.09;5011837;28;19921;-75
2024/03/20 07:32:17;;;;;;;;;;;;;;;7.89;100.00;100967.97;5008728;28;19928;-74
2024/03/20 07:34:43;;;;;;;;;;;;;;;8.02;100.00;100969.53;5012718;28;20375;-74
2024/03/20 07:37:11;;;;;;;;;;;;;;;8.17;100.00;100972.94;5011568;28;20154;-74
2024/03/20 07:55:22;;;;;;;;;;;;;;;8.40;100.00;100981.03;5009322;28;19929;-74
2024/03/20 07:57:48;;;;;;;;;;;;;;;8.24;100.00;100975.03;5012794;28;20012;-74
2024/03/20 08:00:16;;;;;;;;;;;;;;;8.55;100.00;100978.44;5011976;28;19922;-74
2024/03/20 08:02:45;;;;;;;;;;;;;;;8.86;100.00;100972.28;5012213;28;19922;-74
2024/03/20 08:05:12;;;;;;;;;;;;;;;8.89;100.00;100975.91;5012400;28;19921;-74
2024/03/20 08:07:38;;;;;;;;;;;;;;;8.66;95.28;100974.72;5012121;28;19917;-74
2024/03/20 08:10:03;;;;;;;;;;;;;;;8.72;93.90;100972.47;5012347;28;20405;-74
2024/03/20 08:12:31;;;;;;;;;;;;;;;8.51;96.28;100963.59;5001049;28;19976;-74
2024/03/20 08:14:56;;;;;;;;;;;;;;;8.61;94.34;100963.31;5011843;28;20335;-74
2024/03/20 08:17:22;;;;;;;;;;;;;;;8.82;95.02;100966.13;5009234;28;19917;-74
2024/03/20 08:19:49;;;;;;;;;;;;;;;9.04;95.26;100962.06;5012015;28;19932;-74
2024/03/20 08:22:35;;;;;;;;;;;;;;;9.11;94.05;100959.00;5017062;28;19989;-74
2024/03/20 08:25:00;;;;;;;;;;;;;;;9.13;91.58;100962.53;5012040;28;19973;-74
2024/03/20 08:27:26;;;;;;;;;;;;;;;8.86;91.73;100962.00;5018267;28;19928;-74
2024/03/20 08:29:54;;;;;;;;;;;;;;;8.94;93.69;100962.41;5010283;28;19921;-74
2024/03/20 08:32:20;;;;;;;;;;;;;;;9.09;95.22;100952.88;5014835;28;20366;-74
2024/03/20 08:34:45;;;;;;;;;;;;;;;8.99;91.53;100953.22;5012945;28;19921;-74
2024/03/20 08:37:11;;;;;;;;;;;;;;;9.02;91.54;100948.22;5011670;28;19921;-74
2024/03/20 08:39:36;;;;;;;;;;;;;;;9.18;89.88;100945.63;5012693;28;20020;-74
2024/03/20 08:42:01;;;;;;;;;;;;;;;9.30;90.87;100939.31;5012587;28;20036;-75
2024/03/20 08:44:28;;;;;;;;;;;;;;;9.04;92.15;100942.34;5014086;28;20012;-74
2024/03/20 08:46:53;;;;;;;;;;;;;;;8.99;91.07;100941.22;5012456;28;19940;-74
2024/03/20 08:49:19;;;;;;;;;;;;;;;9.21;92.31;100945.78;4992798;28;20383;-74
2024/03/20 08:51:44;;;;;;;;;;;;;;;9.44;89.77;100935.72;5010763;28;20083;-74
2024/03/20 08:54:10;;;;;;;;;;;;;;;9.53;90.37;100912.09;5012451;28;19918;-74
2024/03/20 08:56:36;;;;;;;;;;;;;;;9.77;89.40;100932.09;5011108;28;19930;-75
2024/03/20 08:59:03;;;;;;;;;;;;;;;9.97;83.98;100933.94;5011204;28;19983;-74
2024/03/20 09:01:29;;;;;;;;;;;;;;;10.08;84.53;100934.47;5008795;28;19928;-74
2024/03/20 09:03:55;;;;;;;;;;;;;;;9.98;86.85;100932.25;5010985;28;19935;-74
2024/03/20 09:06:20;;;;;;;;;;;;;;;10.26;88.37;100929.25;5011999;28;19941;-74
2024/03/20 09:08:45;;;;;;;;;;;;;;;10.31;81.49;100921.72;5011258;28;20024;-74
2024/03/20 09:11:11;;;;;;;;;;;;;;;10.47;83.83;100924.19;5011195;28;19921;-75
2024/03/20 09:13:38;;;;;;;;;;;;;;;10.66;82.89;100920.72;5011217;28;19925;-74
2024/03/20 09:16:05;;;;;;;;;;;;;;;10.38;80.16;100931.56;5010956;28;19921;-75
2024/03/20 09:18:30;;;;;;;;;;;;;;;10.36;82.28;100930.59;5011187;28;19925;-75
2024/03/20 09:20:56;;;;;;;;;;;;;;;10.28;79.92;100931.88;5010933;28;19921;-75
2024/03/20 09:23:22;;;;;;;;;;;;;;;10.28;80.16;100932.78;5010990;28;19925;-74
2024/03/20 09:25:47;;;;;;;;;;;;;;;10.24;79.63;100933.44;4998512;28;20395;-75
2024/03/20 09:28:13;;;;;;;;;;;;;;;10.28;78.12;100934.47;5011042;28;19921;-76
2024/03/20 09:30:38;;;;;;;;;;;;;;;9.94;78.25;100928.63;5011053;28;20077;-74
2024/03/20 09:33:03;;;;;;;;;;;;;;;10.15;81.99;100930.44;5011012;28;19929;-75
2024/03/20 09:35:29;;;;;;;;;;;;;;;10.41;75.24;100936.84;5010848;28;20423;-75
2024/03/20 09:37:54;;;;;;;;;;;;;;;10.45;75.07;100930.13;5010445;28;19947;-75
2024/03/20 09:40:22;;;;;;;;;;;;;;;10.74;73.73;100931.41;5010444;28;20299;-75
2024/03/20 09:42:50;;;;;;;;;;;;;;;11.10;73.94;100926.06;5010594;28;19926;-75
2024/03/20 09:45:15;;;;;;;;;;;;;;;11.29;66.13;100911.28;5010946;28;20387;-75
2024/03/20 09:47:42;;;;;;;;;;;;;;;11.25;67.64;100910.31;5009923;28;19921;-75
2024/03/20 09:50:12;;;;;;;;;;;;;;;11.16;68.82;100913.41;5010142;28;20407;-75
2024/03/20 09:52:37;;;;;;;;;;;;;;;11.36;68.05;100907.28;5010801;28;20007;-75
2024/03/20 09:55:06;;;;;;;;;;;;;;;11.59;66.01;100909.09;5010308;28;19960;-75
2024/03/20 09:57:32;;;;;;;;;;;;;;;11.73;62.04;100912.22;5002909;28;20023;-74
2024/03/20 09:59:58;;;;;;;;;;;;;;;11.93;58.88;100899.16;5010124;28;19963;-75
2024/03/20 10:02:26;;;;;;;;;;;;;;;12.20;59.23;100901.06;5010072;28;20418;-75
2024/03/20 10:04:53;;;;;;;;;;;;;;;12.50;56.59;100890.06;5010200;28;19945;-75
2024/03/20 10:07:18;;;;;;;;;;;;;;;12.68;59.20;100890.72;5010234;28;19980;-75
2024/03/20 10:09:46;;;;;;;;;;;;;;;12.82;59.34;100880.81;5010218;28;19947;-75
2024/03/20 10:12:12;;;;;;;;;;;;;;;12.86;59.38;100893.06;5010855;28;19917;-75
2024/03/20 10:14:38;;;;;;;;;;;;;;;13.04;57.03;100892.81;5007659;28;19922;-75
2024/03/20 10:17:10;;;;;;;;;;;;;;;13.07;53.68;100881.66;5010367;28;20342;-75
2024/03/20 10:19:36;;;;;;;;;;;;;;;12.96;54.85;100870.94;5010049;28;19921;-75
2024/03/20 10:22:02;;;;;;;;;;;;;;;13.11;53.47;100875.75;5025156;28;19975;-74
2024/03/20 10:24:28;;;;;;;;;;;;;;;13.07;54.00;100873.88;5008469;28;20016;-75
2024/03/20 10:26:55;;;;;;;;;;;;;;;12.68;54.31;100866.53;5008627;28;19997;-75
2024/03/20 10:29:22;;;;;;;;;;;;;;;12.35;55.37;100872.25;5009952;28;19921;-75
2024/03/20 10:31:50;;;;;;;;;;;;;;;11.82;53.64;100878.97;5010280;28;20299;-75
2024/03/20 10:34:17;;;;;;;;;;;;;;;12.16;55.40;100873.31;5008958;28;19967;-74
2024/03/20 10:36:43;;;;;;;;;;;;;;;12.42;56.80;100864.78;5009251;28;19926;-75
2024/03/20 10:39:17;;;;;;;;;;;;;;;12.42;53.69;100854.44;5010164;28;19941;-75
2024/03/20 10:41:44;;;;;;;;;;;;;;;12.07;55.79;100861.78;5010359;28;19921;-74
2024/03/20 10:44:13;;;;;;;;;;;;;;;11.78;58.08;100861.53;5009749;28;20326;-75
2024/03/20 10:46:40;;;;;;;;;;;;;;;11.74;57.77;100859.66;5009713;28;20008;-74
2024/03/20 10:49:07;;;;;;;;;;;;;;;11.67;56.58;100869.72;5009613;28;19975;-74
2024/03/20 10:51:33;;;;;;;;;;;;;;;11.56;55.51;100861.53;5009596;28;19932;-74
2024/03/20 10:53:58;;;;;;;;;;;;;;;11.95;57.16;100854.41;5010668;28;19917;-75
2024/03/20 10:56:24;;;;;;;;;;;;;;;12.24;55.11;100841.69;5009882;28;19921;-75
2024/03/20 10:58:59;;;;;;;;;;;;;;;12.21;52.44;100836.41;5012901;28;20417;-75
2024/03/20 11:01:24;;;;;;;;;;;;;;;11.93;54.77;100843.13;5008644;28;20379;-75
2024/03/20 11:03:54;;;;;;;;;;;;;;;11.88;55.40;100854.13;5013490;28;19921;-75
2024/03/20 11:06:38;;;;;;;;;;;;;;;11.87;56.09;100847.19;5013267;28;19917;-75
2024/03/20 11:09:11;;;;;;;;;;;;;;;11.97;57.60;100847.63;5013527;28;20019;-75
2024/03/20 11:11:37;;;;;;;;;;;;;;;12.07;57.70;100850.56;5013682;28;20099;-75
2024/03/20 11:14:03;;;;;;;;;;;;;;;12.40;55.12;100840.53;5013208;28;20008;-75
2024/03/20 11:16:30;;;;;;;;;;;;;;;12.18;54.52;100838.00;5013693;28;19925;-75
2024/03/20 11:18:57;;;;;;;;;;;;;;;12.08;55.12;100837.66;5027791;28;19980;-75
2024/03/20 11:21:26;;;;;;;;;;;;;;;12.12;55.88;100836.06;5013581;28;20319;-75
2024/03/20 11:23:55;;;;;;;;;;;;;;;12.00;55.35;100852.03;5013705;28;19993;-75
2024/03/20 11:26:21;;;;;;;;;;;;;;;11.95;55.86;100845.75;5006454;28;19996;-75
2024/03/20 11:28:49;;;;;;;;;;;;;;;11.88;57.61;100851.56;5012868;28;20016;-75
2024/03/20 11:31:15;;;;;;;;;;;;;;;11.79;57.45;100850.38;5011339;28;19925;-75
2024/03/20 11:33:42;;;;;;;;;;;;;;;12.12;56.83;100838.66;5012823;28;20008;-75
2024/03/20 11:36:21;;;;;;;;;;;;;;;12.25;55.93;100839.97;5012799;28;19921;-76
2024/03/20 11:38:47;;;;;;;;;;;;;;;12.29;57.62;100837.56;5013053;28;19921;-75
2024/03/20 11:41:17;;;;;;;;;;;;;;;12.32;56.28;100838.50;5013043;28;19927;-75
2024/03/20 11:43:43;;;;;;;;;;;;;;;12.09;55.32;100847.19;5013048;28;19918;-75
2024/03/20 11:46:12;;;;;;;;;;;;;;;12.01;54.55;100840.84;5013065;28;19922;-75
2024/03/20 11:48:38;;;;;;;;;;;;;;;12.03;54.80;100843.50;5012909;28;20758;-75
2024/03/20 11:51:09;;;;;;;;;;;;;;;12.04;58.33;100842.69;5013350;28;19929;-75
2024/03/20 11:53:35;;;;;;;;;;;;;;;12.03;56.50;100841.78;5012949;28;19949;-76
2024/03/20 11:56:00;;;;;;;;;;;;;;;12.10;58.51;100832.53;4993777;28;19957;-76
2024/03/20 11:58:25;;;;;;;;;;;;;;;12.17;57.72;100833.66;5012377;28;20067;-76
2024/03/20 12:00:52;;;;;;;;;;;;;;;12.52;59.24;100834.91;5012622;28;19914;-75
2024/03/20 12:03:22;;;;;;;;;;;;;;;12.78;56.53;100833.22;5012370;28;19955;-75
2024/03/20 12:05:47;;;;;;;;;;;;;;;12.97;53.39;100822.56;5012582;28;19991;-75
2024/03/20 12:08:17;;;;;;;;;;;;;;;12.56;52.50;100830.72;5011821;28;19965;-75
2024/03/20 12:10:43;;;;;;;;;;;;;;;12.91;53.65;100821.53;5011537;28;20303;-75
2024/03/20 12:13:28;;;;;;;;;;;;;;;12.80;53.46;100815.13;5012387;28;19923;-76
2024/03/20 12:15:53;;;;;;;;;;;;;;;13.18;53.37;100817.19;5020192;28;20574;-75
2024/03/20 12:18:19;;;;;;;;;;;;;;;13.28;51.72;100827.03;5013423;28;19928;-74
2024/03/20 12:20:44;;;;;;;;;;;;;;;13.45;51.84;100818.94;5017782;28;20018;-75
2024/03/20 12:23:09;;;;;;;;;;;;;;;13.71;54.33;100817.16;5019802;28;21321;-75
2024/03/20 12:25:35;;;;;;;;;;;;;;;13.80;49.98;100808.75;5011892;28;19991;-76
2024/03/20 12:28:00;;;;;;;;;;;;;;;13.84;50.76;100805.41;5020526;28;20030;-75
2024/03/20 12:30:26;;;;;;;;;;;;;;;13.89;50.45;100803.81;5022188;28;19916;-75
2024/03/20 12:32:51;;;;;;;;;;;;;;;14.05;52.51;100810.31;5012879;28;19921;-75
2024/03/20 12:35:18;;;;;;;;;;;;;;;13.91;50.06;100803.00;5021434;28;20334;-75
2024/03/20 12:37:44;;;;;;;;;;;;;;;13.74;50.55;100804.25;5019995;28;19925;-75
2024/03/20 12:40:12;;;;;;;;;;;;;;;13.48;50.22;100801.75;5018407;28;20381;-75
2024/03/20 12:42:39;;;;;;;;;;;;;;;12.97;53.68;100801.84;5018358;28;19917;-75
2024/03/20 12:45:06;;;;;;;;;;;;;;;12.99;51.90;100800.19;5016491;28;20365;-75
2024/03/20 12:47:31;;;;;;;;;;;;;;;13.22;49.75;100790.53;5013192;28;19924;-75
2024/03/20 12:49:57;;;;;;;;;;;;;;;13.42;51.82;100794.66;5011895;28;19921;-75